Aviation Digital Data Service (ADDS)

Output produced by METARs form (2025 UTC 18 August 2017)
found at http://aviationweather.gov/adds/metars/
 
KBWI 181720Z 1818/1924 19007KT P6SM SCT035 BKN200 
     FM182000 19007KT P6SM VCTS SCT045CB BKN150 
     TEMPO 1820/1823 VRB20G35KT 1SM +TSRA BKN035CB 
     FM190000 23004KT P6SM SHRA SCT025 OVC080 
     FM190200 VRB03KT P6SM SCT025 BKN090 
     FM190600 26005KT P6SM FEW025 SCT090